sensor_id;sensor_type;location;lat;lon;timestamp;P1;durP1;ratioP1;P2;durP2;ratioP2
33138;SDS011;19501;50.948;5.316;2022-07-29T00:00:05;16.48;;;5.65;;
33138;SDS011;19501;50.948;5.316;2022-07-29T00:02:32;13.80;;;5.47;;
33138;SDS011;19501;50.948;5.316;2022-07-29T00:04:58;15.95;;;5.18;;
33138;SDS011;19501;50.948;5.316;2022-07-29T00:07:23;15.32;;;5.70;;
33138;SDS011;19501;50.948;5.316;2022-07-29T00:09:49;17.92;;;5.28;;
33138;SDS011;19501;50.948;5.316;2022-07-29T00:12:15;18.52;;;5.40;;
33138;SDS011;19501;50.948;5.316;2022-07-29T00:14:41;18.10;;;5.82;;
33138;SDS011;19501;50.948;5.316;2022-07-29T00:17:09;15.35;;;5.60;;
33138;SDS011;19501;50.948;5.316;2022-07-29T00:19:35;12.60;;;5.10;;
33138;SDS011;19501;50.948;5.316;2022-07-29T00:22:01;13.27;;;5.30;;
33138;SDS011;19501;50.948;5.316;2022-07-29T00:24:26;15.60;;;5.18;;
33138;SDS011;19501;50.948;5.316;2022-07-29T00:26:52;15.60;;;5.38;;
33138;SDS011;19501;50.948;5.316;2022-07-29T00:29:18;18.67;;;5.35;;
33138;SDS011;19501;50.948;5.316;2022-07-29T00:31:44;14.85;;;5.28;;
33138;SDS011;19501;50.948;5.316;2022-07-29T00:34:10;18.92;;;5.80;;
33138;SDS011;19501;50.948;5.316;2022-07-29T00:36:54;16.92;;;6.00;;
33138;SDS011;19501;50.948;5.316;2022-07-29T00:39:20;18.15;;;5.40;;
33138;SDS011;19501;50.948;5.316;2022-07-29T00:41:46;17.52;;;5.60;;
33138;SDS011;19501;50.948;5.316;2022-07-29T00:44:11;16.92;;;5.78;;
33138;SDS011;19501;50.948;5.316;2022-07-29T00:46:37;13.30;;;5.90;;
33138;SDS011;19501;50.948;5.316;2022-07-29T00:49:03;17.35;;;5.93;;
33138;SDS011;19501;50.948;5.316;2022-07-29T00:51:29;17.95;;;5.85;;
33138;SDS011;19501;50.948;5.316;2022-07-29T00:53:56;15.73;;;5.78;;
33138;SDS011;19501;50.948;5.316;2022-07-29T00:56:22;17.95;;;6.30;;
33138;SDS011;19501;50.948;5.316;2022-07-29T00:58:48;18.25;;;5.90;;
33138;SDS011;19501;50.948;5.316;2022-07-29T01:01:16;15.57;;;5.63;;
33138;SDS011;19501;50.948;5.316;2022-07-29T01:03:42;16.27;;;5.88;;
33138;SDS011;19501;50.948;5.316;2022-07-29T01:06:07;13.43;;;5.45;;
33138;SDS011;19501;50.948;5.316;2022-07-29T01:08:34;16.27;;;5.50;;
33138;SDS011;19501;50.948;5.316;2022-07-29T01:11:01;13.40;;;5.60;;
33138;SDS011;19501;50.948;5.316;2022-07-29T01:13:27;12.57;;;5.78;;
33138;SDS011;19501;50.948;5.316;2022-07-29T01:15:56;19.63;;;5.82;;
33138;SDS011;19501;50.948;5.316;2022-07-29T01:18:30;10.98;;;4.97;;
33138;SDS011;19501;50.948;5.316;2022-07-29T01:26:34;17.50;;;5.45;;
33138;SDS011;19501;50.948;5.316;2022-07-29T01:29:30;12.15;;;4.97;;
33138;SDS011;19501;50.948;5.316;2022-07-29T01:32:29;17.30;;;5.53;;
33138;SDS011;19501;50.948;5.316;2022-07-29T01:35:00;14.75;;;4.95;;
33138;SDS011;19501;50.948;5.316;2022-07-29T01:40:24;12.73;;;5.13;;
33138;SDS011;19501;50.948;5.316;2022-07-29T01:43:16;24.98;;;5.68;;
33138;SDS011;19501;50.948;5.316;2022-07-29T01:45:46;14.30;;;4.70;;
33138;SDS011;19501;50.948;5.316;2022-07-29T01:48:24;12.38;;;5.40;;
33138;SDS011;19501;50.948;5.316;2022-07-29T01:51:04;12.98;;;4.90;;
33138;SDS011;19501;50.948;5.316;2022-07-29T01:53:37;19.15;;;5.30;;
33138;SDS011;19501;50.948;5.316;2022-07-29T01:56:10;16.23;;;5.35;;
33138;SDS011;19501;50.948;5.316;2022-07-29T01:58:38;18.67;;;5.40;;
33138;SDS011;19501;50.948;5.316;2022-07-29T02:01:06;18.75;;;5.70;;
33138;SDS011;19501;50.948;5.316;2022-07-29T02:03:34;13.70;;;5.40;;
33138;SDS011;19501;50.948;5.316;2022-07-29T02:06:02;17.00;;;6.40;;
33138;SDS011;19501;50.948;5.316;2022-07-29T02:08:31;18.38;;;5.97;;
33138;SDS011;19501;50.948;5.316;2022-07-29T02:10:59;19.13;;;5.85;;
33138;SDS011;19501;50.948;5.316;2022-07-29T02:13:26;16.58;;;6.07;;
33138;SDS011;19501;50.948;5.316;2022-07-29T02:15:57;17.05;;;6.18;;
33138;SDS011;19501;50.948;5.316;2022-07-29T02:18:25;16.50;;;6.32;;
33138;SDS011;19501;50.948;5.316;2022-07-29T02:20:54;15.68;;;6.20;;
33138;SDS011;19501;50.948;5.316;2022-07-29T02:23:23;17.00;;;6.20;;
33138;SDS011;19501;50.948;5.316;2022-07-29T02:25:55;31.20;;;7.70;;
33138;SDS011;19501;50.948;5.316;2022-07-29T02:28:25;16.70;;;6.32;;
33138;SDS011;19501;50.948;5.316;2022-07-29T02:30:53;17.95;;;6.45;;
33138;SDS011;19501;50.948;5.316;2022-07-29T02:33:24;13.60;;;5.88;;
33138;SDS011;19501;50.948;5.316;2022-07-29T02:35:52;15.60;;;6.28;;
33138;SDS011;19501;50.948;5.316;2022-07-29T02:38:19;17.00;;;6.30;;
33138;SDS011;19501;50.948;5.316;2022-07-29T02:41:09;17.40;;;6.60;;
33138;SDS011;19501;50.948;5.316;2022-07-29T02:43:36;14.13;;;5.97;;
33138;SDS011;19501;50.948;5.316;2022-07-29T02:46:05;18.40;;;6.00;;
33138;SDS011;19501;50.948;5.316;2022-07-29T02:48:37;19.20;;;6.57;;
33138;SDS011;19501;50.948;5.316;2022-07-29T02:51:07;12.43;;;5.63;;
33138;SDS011;19501;50.948;5.316;2022-07-29T02:53:38;17.25;;;6.28;;
33138;SDS011;19501;50.948;5.316;2022-07-29T02:56:10;17.55;;;6.20;;
33138;SDS011;19501;50.948;5.316;2022-07-29T02:58:42;16.48;;;5.90;;
33138;SDS011;19501;50.948;5.316;2022-07-29T03:01:13;13.43;;;4.88;;
33138;SDS011;19501;50.948;5.316;2022-07-29T03:03:42;16.08;;;6.13;;
33138;SDS011;19501;50.948;5.316;2022-07-29T03:06:09;14.43;;;5.70;;
33138;SDS011;19501;50.948;5.316;2022-07-29T03:08:38;18.15;;;5.95;;
33138;SDS011;19501;50.948;5.316;2022-07-29T03:11:05;15.82;;;5.50;;
33138;SDS011;19501;50.948;5.316;2022-07-29T03:13:32;19.20;;;6.13;;
33138;SDS011;19501;50.948;5.316;2022-07-29T03:15:58;15.10;;;5.50;;
33138;SDS011;19501;50.948;5.316;2022-07-29T03:18:24;14.02;;;5.60;;
33138;SDS011;19501;50.948;5.316;2022-07-29T03:20:50;14.40;;;5.88;;
33138;SDS011;19501;50.948;5.316;2022-07-29T03:23:23;13.98;;;5.38;;
33138;SDS011;19501;50.948;5.316;2022-07-29T03:25:51;17.67;;;5.80;;
33138;SDS011;19501;50.948;5.316;2022-07-29T03:28:16;16.00;;;5.90;;
33138;SDS011;19501;50.948;5.316;2022-07-29T03:30:42;14.27;;;6.03;;
33138;SDS011;19501;50.948;5.316;2022-07-29T03:33:08;13.10;;;5.22;;
33138;SDS011;19501;50.948;5.316;2022-07-29T03:35:34;14.02;;;5.70;;
33138;SDS011;19501;50.948;5.316;2022-07-29T03:37:59;15.82;;;5.65;;
33138;SDS011;19501;50.948;5.316;2022-07-29T03:40:33;11.43;;;5.35;;
33138;SDS011;19501;50.948;5.316;2022-07-29T03:43:03;14.00;;;5.20;;
33138;SDS011;19501;50.948;5.316;2022-07-29T03:45:30;14.77;;;5.32;;
33138;SDS011;19501;50.948;5.316;2022-07-29T03:47:59;12.80;;;5.50;;
33138;SDS011;19501;50.948;5.316;2022-07-29T03:50:28;17.15;;;6.18;;
33138;SDS011;19501;50.948;5.316;2022-07-29T03:52:56;11.27;;;5.55;;
33138;SDS011;19501;50.948;5.316;2022-07-29T03:55:22;16.42;;;5.13;;
33138;SDS011;19501;50.948;5.316;2022-07-29T03:57:49;16.20;;;5.78;;
33138;SDS011;19501;50.948;5.316;2022-07-29T04:00:15;12.27;;;5.38;;
33138;SDS011;19501;50.948;5.316;2022-07-29T04:02:43;13.77;;;5.93;;
33138;SDS011;19501;50.948;5.316;2022-07-29T04:05:13;14.82;;;6.00;;
33138;SDS011;19501;50.948;5.316;2022-07-29T04:07:40;13.18;;;5.63;;
33138;SDS011;19501;50.948;5.316;2022-07-29T04:10:09;16.35;;;6.28;;
33138;SDS011;19501;50.948;5.316;2022-07-29T04:12:35;17.23;;;5.60;;
33138;SDS011;19501;50.948;5.316;2022-07-29T04:15:01;13.15;;;5.80;;
33138;SDS011;19501;50.948;5.316;2022-07-29T04:17:28;14.52;;;5.20;;
33138;SDS011;19501;50.948;5.316;2022-07-29T04:19:54;17.52;;;5.93;;
33138;SDS011;19501;50.948;5.316;2022-07-29T04:22:20;14.30;;;5.72;;
33138;SDS011;19501;50.948;5.316;2022-07-29T04:24:45;17.88;;;5.63;;
33138;SDS011;19501;50.948;5.316;2022-07-29T04:27:11;18.58;;;6.15;;
33138;SDS011;19501;50.948;5.316;2022-07-29T04:29:37;13.88;;;5.95;;
33138;SDS011;19501;50.948;5.316;2022-07-29T04:32:03;14.15;;;5.45;;
33138;SDS011;19501;50.948;5.316;2022-07-29T04:34:31;11.95;;;5.55;;
33138;SDS011;19501;50.948;5.316;2022-07-29T04:36:57;12.80;;;5.47;;
33138;SDS011;19501;50.948;5.316;2022-07-29T04:39:24;16.98;;;6.55;;
33138;SDS011;19501;50.948;5.316;2022-07-29T04:41:50;12.52;;;6.03;;
33138;SDS011;19501;50.948;5.316;2022-07-29T04:44:17;17.63;;;6.90;;
33138;SDS011;19501;50.948;5.316;2022-07-29T04:46:44;17.10;;;6.97;;
33138;SDS011;19501;50.948;5.316;2022-07-29T04:49:10;16.77;;;7.22;;
33138;SDS011;19501;50.948;5.316;2022-07-29T04:51:36;18.70;;;7.70;;
33138;SDS011;19501;50.948;5.316;2022-07-29T04:54:02;23.20;;;7.63;;
33138;SDS011;19501;50.948;5.316;2022-07-29T04:56:28;20.30;;;7.82;;
33138;SDS011;19501;50.948;5.316;2022-07-29T04:58:54;16.15;;;7.43;;
33138;SDS011;19501;50.948;5.316;2022-07-29T05:01:20;20.17;;;7.53;;
33138;SDS011;19501;50.948;5.316;2022-07-29T05:03:46;18.17;;;7.40;;
33138;SDS011;19501;50.948;5.316;2022-07-29T05:06:12;18.95;;;8.32;;
33138;SDS011;19501;50.948;5.316;2022-07-29T05:08:37;21.60;;;7.45;;
33138;SDS011;19501;50.948;5.316;2022-07-29T05:11:03;17.13;;;7.75;;
33138;SDS011;19501;50.948;5.316;2022-07-29T05:13:31;19.92;;;8.32;;
33138;SDS011;19501;50.948;5.316;2022-07-29T05:15:58;17.00;;;8.75;;
33138;SDS011;19501;50.948;5.316;2022-07-29T05:18:24;17.80;;;7.88;;
33138;SDS011;19501;50.948;5.316;2022-07-29T05:20:50;25.10;;;8.52;;
33138;SDS011;19501;50.948;5.316;2022-07-29T05:23:17;19.00;;;7.97;;
33138;SDS011;19501;50.948;5.316;2022-07-29T05:25:43;18.25;;;7.75;;
33138;SDS011;19501;50.948;5.316;2022-07-29T05:28:09;19.05;;;8.40;;
33138;SDS011;19501;50.948;5.316;2022-07-29T05:30:38;19.90;;;8.90;;
33138;SDS011;19501;50.948;5.316;2022-07-29T05:33:03;23.30;;;8.38;;
33138;SDS011;19501;50.948;5.316;2022-07-29T05:35:30;28.98;;;9.25;;
33138;SDS011;19501;50.948;5.316;2022-07-29T05:37:55;19.20;;;8.43;;
33138;SDS011;19501;50.948;5.316;2022-07-29T05:40:21;21.88;;;9.18;;
33138;SDS011;19501;50.948;5.316;2022-07-29T05:42:47;21.83;;;9.00;;
33138;SDS011;19501;50.948;5.316;2022-07-29T05:45:13;24.58;;;9.13;;
33138;SDS011;19501;50.948;5.316;2022-07-29T05:47:40;21.25;;;9.35;;
33138;SDS011;19501;50.948;5.316;2022-07-29T05:50:06;19.65;;;8.82;;
33138;SDS011;19501;50.948;5.316;2022-07-29T05:52:33;17.65;;;8.40;;
33138;SDS011;19501;50.948;5.316;2022-07-29T05:55:01;20.65;;;9.43;;
33138;SDS011;19501;50.948;5.316;2022-07-29T05:57:29;23.85;;;9.05;;
33138;SDS011;19501;50.948;5.316;2022-07-29T05:59:55;19.35;;;8.52;;
33138;SDS011;19501;50.948;5.316;2022-07-29T06:02:20;21.50;;;9.60;;
33138;SDS011;19501;50.948;5.316;2022-07-29T06:04:46;18.35;;;8.77;;
33138;SDS011;19501;50.948;5.316;2022-07-29T06:07:14;20.27;;;8.82;;
33138;SDS011;19501;50.948;5.316;2022-07-29T06:09:41;20.77;;;9.15;;
33138;SDS011;19501;50.948;5.316;2022-07-29T06:12:07;22.05;;;9.40;;
33138;SDS011;19501;50.948;5.316;2022-07-29T06:14:33;21.08;;;9.20;;
33138;SDS011;19501;50.948;5.316;2022-07-29T06:16:58;17.92;;;8.38;;
33138;SDS011;19501;50.948;5.316;2022-07-29T06:19:25;21.52;;;9.35;;
33138;SDS011;19501;50.948;5.316;2022-07-29T06:21:51;22.15;;;9.85;;
33138;SDS011;19501;50.948;5.316;2022-07-29T06:24:16;20.10;;;8.88;;
33138;SDS011;19501;50.948;5.316;2022-07-29T06:26:42;20.65;;;9.50;;
33138;SDS011;19501;50.948;5.316;2022-07-29T06:29:08;22.48;;;9.32;;
33138;SDS011;19501;50.948;5.316;2022-07-29T06:31:35;19.17;;;9.50;;
33138;SDS011;19501;50.948;5.316;2022-07-29T06:34:01;19.48;;;9.45;;
33138;SDS011;19501;50.948;5.316;2022-07-29T06:36:26;21.35;;;10.40;;
33138;SDS011;19501;50.948;5.316;2022-07-29T06:38:53;22.13;;;9.68;;
33138;SDS011;19501;50.948;5.316;2022-07-29T06:41:18;22.95;;;10.00;;
33138;SDS011;19501;50.948;5.316;2022-07-29T06:43:47;25.23;;;10.55;;
33138;SDS011;19501;50.948;5.316;2022-07-29T06:46:14;22.80;;;9.70;;
33138;SDS011;19501;50.948;5.316;2022-07-29T06:48:42;18.40;;;9.82;;
33138;SDS011;19501;50.948;5.316;2022-07-29T06:51:11;21.65;;;10.15;;
33138;SDS011;19501;50.948;5.316;2022-07-29T06:53:40;20.15;;;9.75;;
33138;SDS011;19501;50.948;5.316;2022-07-29T06:56:06;25.98;;;11.52;;
33138;SDS011;19501;50.948;5.316;2022-07-29T06:58:52;20.95;;;10.45;;
33138;SDS011;19501;50.948;5.316;2022-07-29T07:01:18;23.42;;;10.45;;
33138;SDS011;19501;50.948;5.316;2022-07-29T07:03:44;19.65;;;9.85;;
33138;SDS011;19501;50.948;5.316;2022-07-29T07:06:10;22.60;;;10.13;;
33138;SDS011;19501;50.948;5.316;2022-07-29T07:08:36;19.75;;;9.82;;
33138;SDS011;19501;50.948;5.316;2022-07-29T07:11:01;21.38;;;9.95;;
33138;SDS011;19501;50.948;5.316;2022-07-29T07:13:29;19.05;;;9.88;;
33138;SDS011;19501;50.948;5.316;2022-07-29T07:15:59;22.48;;;10.27;;
33138;SDS011;19501;50.948;5.316;2022-07-29T07:18:25;20.73;;;10.25;;
33138;SDS011;19501;50.948;5.316;2022-07-29T07:20:51;21.00;;;9.48;;
33138;SDS011;19501;50.948;5.316;2022-07-29T07:23:16;23.25;;;10.05;;
33138;SDS011;19501;50.948;5.316;2022-07-29T07:25:45;20.08;;;10.88;;
33138;SDS011;19501;50.948;5.316;2022-07-29T07:28:10;21.95;;;9.68;;
33138;SDS011;19501;50.948;5.316;2022-07-29T07:30:36;22.00;;;10.27;;
33138;SDS011;19501;50.948;5.316;2022-07-29T07:33:02;20.73;;;9.32;;
33138;SDS011;19501;50.948;5.316;2022-07-29T07:35:27;19.48;;;8.98;;
33138;SDS011;19501;50.948;5.316;2022-07-29T07:37:54;19.23;;;9.05;;
33138;SDS011;19501;50.948;5.316;2022-07-29T07:40:22;18.20;;;9.30;;
33138;SDS011;19501;50.948;5.316;2022-07-29T07:42:50;17.67;;;8.38;;
33138;SDS011;19501;50.948;5.316;2022-07-29T07:45:16;19.20;;;9.23;;
33138;SDS011;19501;50.948;5.316;2022-07-29T07:47:42;18.85;;;8.50;;
33138;SDS011;19501;50.948;5.316;2022-07-29T07:50:08;19.17;;;8.88;;
33138;SDS011;19501;50.948;5.316;2022-07-29T07:52:45;22.52;;;9.13;;
33138;SDS011;19501;50.948;5.316;2022-07-29T07:55:15;21.45;;;8.70;;
33138;SDS011;19501;50.948;5.316;2022-07-29T07:57:41;20.30;;;8.43;;
33138;SDS011;19501;50.948;5.316;2022-07-29T08:00:07;19.77;;;8.80;;
33138;SDS011;19501;50.948;5.316;2022-07-29T08:02:33;18.08;;;8.20;;
33138;SDS011;19501;50.948;5.316;2022-07-29T08:04:59;22.17;;;8.82;;
33138;SDS011;19501;50.948;5.316;2022-07-29T08:07:25;17.75;;;8.68;;
33138;SDS011;19501;50.948;5.316;2022-07-29T08:09:51;17.75;;;8.23;;
33138;SDS011;19501;50.948;5.316;2022-07-29T08:12:16;19.92;;;8.30;;
33138;SDS011;19501;50.948;5.316;2022-07-29T08:14:42;17.58;;;8.25;;
33138;SDS011;19501;50.948;5.316;2022-07-29T08:17:08;18.63;;;8.00;;
33138;SDS011;19501;50.948;5.316;2022-07-29T08:19:34;17.10;;;7.95;;
33138;SDS011;19501;50.948;5.316;2022-07-29T08:21:59;17.73;;;8.02;;
33138;SDS011;19501;50.948;5.316;2022-07-29T08:24:25;19.50;;;7.90;;
33138;SDS011;19501;50.948;5.316;2022-07-29T08:27:12;20.45;;;8.60;;
33138;SDS011;19501;50.948;5.316;2022-07-29T08:29:39;15.68;;;7.25;;
33138;SDS011;19501;50.948;5.316;2022-07-29T08:32:05;16.55;;;7.72;;
33138;SDS011;19501;50.948;5.316;2022-07-29T08:34:31;17.17;;;7.95;;
33138;SDS011;19501;50.948;5.316;2022-07-29T08:36:57;16.20;;;7.05;;
33138;SDS011;19501;50.948;5.316;2022-07-29T08:39:23;16.13;;;7.85;;
33138;SDS011;19501;50.948;5.316;2022-07-29T08:41:49;19.35;;;8.70;;
33138;SDS011;19501;50.948;5.316;2022-07-29T08:44:16;16.58;;;7.75;;
33138;SDS011;19501;50.948;5.316;2022-07-29T08:46:42;17.25;;;7.68;;
33138;SDS011;19501;50.948;5.316;2022-07-29T08:49:08;18.08;;;8.63;;
33138;SDS011;19501;50.948;5.316;2022-07-29T08:51:35;17.05;;;7.93;;
33138;SDS011;19501;50.948;5.316;2022-07-29T08:54:04;18.55;;;8.25;;
33138;SDS011;19501;50.948;5.316;2022-07-29T08:56:31;25.17;;;8.55;;
33138;SDS011;19501;50.948;5.316;2022-07-29T08:58:58;18.35;;;9.10;;
33138;SDS011;19501;50.948;5.316;2022-07-29T09:01:28;17.23;;;8.88;;
33138;SDS011;19501;50.948;5.316;2022-07-29T09:03:56;17.77;;;9.02;;
33138;SDS011;19501;50.948;5.316;2022-07-29T09:06:24;18.98;;;8.65;;
33138;SDS011;19501;50.948;5.316;2022-07-29T09:08:53;18.00;;;7.75;;
33138;SDS011;19501;50.948;5.316;2022-07-29T09:11:21;18.83;;;8.00;;
33138;SDS011;19501;50.948;5.316;2022-07-29T09:13:46;18.67;;;8.23;;
33138;SDS011;19501;50.948;5.316;2022-07-29T09:16:15;17.33;;;8.15;;
33138;SDS011;19501;50.948;5.316;2022-07-29T09:18:42;16.67;;;8.02;;
33138;SDS011;19501;50.948;5.316;2022-07-29T09:21:11;18.67;;;7.70;;
33138;SDS011;19501;50.948;5.316;2022-07-29T09:24:10;17.65;;;7.60;;
33138;SDS011;19501;50.948;5.316;2022-07-29T09:26:44;16.50;;;8.25;;
33138;SDS011;19501;50.948;5.316;2022-07-29T09:29:13;16.33;;;7.55;;
33138;SDS011;19501;50.948;5.316;2022-07-29T09:31:41;20.02;;;9.25;;
33138;SDS011;19501;50.948;5.316;2022-07-29T09:34:08;17.50;;;7.90;;
33138;SDS011;19501;50.948;5.316;2022-07-29T09:36:45;14.75;;;7.47;;
33138;SDS011;19501;50.948;5.316;2022-07-29T09:39:13;17.23;;;7.20;;
33138;SDS011;19501;50.948;5.316;2022-07-29T09:41:47;17.80;;;7.60;;
33138;SDS011;19501;50.948;5.316;2022-07-29T09:44:14;15.73;;;6.95;;
33138;SDS011;19501;50.948;5.316;2022-07-29T09:46:52;16.92;;;7.10;;
33138;SDS011;19501;50.948;5.316;2022-07-29T09:49:31;19.00;;;8.07;;
33138;SDS011;19501;50.948;5.316;2022-07-29T09:52:00;14.60;;;6.82;;
33138;SDS011;19501;50.948;5.316;2022-07-29T09:54:29;15.50;;;7.28;;
33138;SDS011;19501;50.948;5.316;2022-07-29T09:57:01;15.90;;;6.67;;
33138;SDS011;19501;50.948;5.316;2022-07-29T09:59:30;15.98;;;6.68;;
33138;SDS011;19501;50.948;5.316;2022-07-29T10:01:56;15.52;;;6.57;;
33138;SDS011;19501;50.948;5.316;2022-07-29T10:04:21;14.23;;;6.57;;
33138;SDS011;19501;50.948;5.316;2022-07-29T10:07:01;14.55;;;6.40;;
33138;SDS011;19501;50.948;5.316;2022-07-29T10:09:27;14.60;;;5.80;;
33138;SDS011;19501;50.948;5.316;2022-07-29T10:12:06;15.93;;;5.55;;
33138;SDS011;19501;50.948;5.316;2022-07-29T10:14:35;13.57;;;5.70;;
33138;SDS011;19501;50.948;5.316;2022-07-29T10:17:02;17.30;;;6.00;;
33138;SDS011;19501;50.948;5.316;2022-07-29T10:19:29;14.70;;;6.13;;
33138;SDS011;19501;50.948;5.316;2022-07-29T10:21:57;13.98;;;5.20;;
33138;SDS011;19501;50.948;5.316;2022-07-29T10:24:27;13.13;;;5.22;;
33138;SDS011;19501;50.948;5.316;2022-07-29T10:26:55;11.55;;;5.13;;
33138;SDS011;19501;50.948;5.316;2022-07-29T10:29:22;17.77;;;5.63;;
33138;SDS011;19501;50.948;5.316;2022-07-29T10:34:23;15.88;;;6.30;;
33138;SDS011;19501;50.948;5.316;2022-07-29T10:40:22;14.48;;;6.22;;
33138;SDS011;19501;50.948;5.316;2022-07-29T10:43:31;12.93;;;5.72;;
33138;SDS011;19501;50.948;5.316;2022-07-29T10:46:01;14.45;;;6.22;;
33138;SDS011;19501;50.948;5.316;2022-07-29T10:48:28;14.02;;;5.75;;
33138;SDS011;19501;50.948;5.316;2022-07-29T10:50:58;12.00;;;5.65;;
33138;SDS011;19501;50.948;5.316;2022-07-29T10:56:25;12.35;;;5.28;;
33138;SDS011;19501;50.948;5.316;2022-07-29T11:01:56;12.52;;;5.50;;
33138;SDS011;19501;50.948;5.316;2022-07-29T11:07:26;11.18;;;5.53;;
33138;SDS011;19501;50.948;5.316;2022-07-29T11:15:04;10.93;;;5.35;;
33138;SDS011;19501;50.948;5.316;2022-07-29T11:23:22;12.55;;;5.25;;
33138;SDS011;19501;50.948;5.316;2022-07-29T11:31:19;11.05;;;5.32;;
33138;SDS011;19501;50.948;5.316;2022-07-29T11:34:19;9.50;;;5.13;;
33138;SDS011;19501;50.948;5.316;2022-07-29T11:39:34;11.48;;;5.45;;
33138;SDS011;19501;50.948;5.316;2022-07-29T11:47:32;13.18;;;5.63;;
33138;SDS011;19501;50.948;5.316;2022-07-29T11:50:00;11.77;;;6.40;;
33138;SDS011;19501;50.948;5.316;2022-07-29T11:52:37;11.52;;;5.47;;
33138;SDS011;19501;50.948;5.316;2022-07-29T11:55:15;11.23;;;5.28;;
33138;SDS011;19501;50.948;5.316;2022-07-29T11:57:49;11.50;;;5.35;;
33138;SDS011;19501;50.948;5.316;2022-07-29T12:00:27;10.77;;;5.40;;
33138;SDS011;19501;50.948;5.316;2022-07-29T12:02:59;10.77;;;5.40;;
33138;SDS011;19501;50.948;5.316;2022-07-29T12:05:44;13.25;;;5.47;;
33138;SDS011;19501;50.948;5.316;2022-07-29T12:08:15;11.27;;;5.60;;
33138;SDS011;19501;50.948;5.316;2022-07-29T12:10:46;14.27;;;5.90;;
33138;SDS011;19501;50.948;5.316;2022-07-29T12:13:17;12.85;;;5.55;;
33138;SDS011;19501;50.948;5.316;2022-07-29T12:15:57;15.88;;;5.93;;
33138;SDS011;19501;50.948;5.316;2022-07-29T12:18:23;12.70;;;5.45;;
33138;SDS011;19501;50.948;5.316;2022-07-29T12:20:56;11.07;;;4.47;;
33138;SDS011;19501;50.948;5.316;2022-07-29T12:23:23;7.65;;;4.95;;
33138;SDS011;19501;50.948;5.316;2022-07-29T12:25:49;13.70;;;4.63;;
33138;SDS011;19501;50.948;5.316;2022-07-29T12:28:15;9.20;;;4.38;;
33138;SDS011;19501;50.948;5.316;2022-07-29T12:30:44;11.68;;;4.78;;
33138;SDS011;19501;50.948;5.316;2022-07-29T12:33:14;8.50;;;4.40;;
33138;SDS011;19501;50.948;5.316;2022-07-29T12:35:48;13.95;;;4.78;;
33138;SDS011;19501;50.948;5.316;2022-07-29T12:38:25;9.60;;;4.43;;
33138;SDS011;19501;50.948;5.316;2022-07-29T12:40:52;9.18;;;4.72;;
33138;SDS011;19501;50.948;5.316;2022-07-29T12:43:22;7.20;;;3.90;;
33138;SDS011;19501;50.948;5.316;2022-07-29T12:45:52;10.32;;;4.40;;
33138;SDS011;19501;50.948;5.316;2022-07-29T12:48:35;15.03;;;5.00;;
33138;SDS011;19501;50.948;5.316;2022-07-29T12:51:03;9.50;;;4.78;;
33138;SDS011;19501;50.948;5.316;2022-07-29T12:53:30;9.60;;;4.63;;
33138;SDS011;19501;50.948;5.316;2022-07-29T12:55:57;8.05;;;4.60;;
33138;SDS011;19501;50.948;5.316;2022-07-29T13:03:27;9.52;;;4.57;;
33138;SDS011;19501;50.948;5.316;2022-07-29T13:05:54;10.85;;;4.90;;
33138;SDS011;19501;50.948;5.316;2022-07-29T13:08:19;12.85;;;5.50;;
33138;SDS011;19501;50.948;5.316;2022-07-29T13:10:45;8.15;;;4.70;;
33138;SDS011;19501;50.948;5.316;2022-07-29T13:13:16;10.20;;;4.60;;
33138;SDS011;19501;50.948;5.316;2022-07-29T13:15:42;11.15;;;5.20;;
33138;SDS011;19501;50.948;5.316;2022-07-29T13:18:29;14.15;;;6.13;;
33138;SDS011;19501;50.948;5.316;2022-07-29T13:21:09;9.35;;;4.72;;
33138;SDS011;19501;50.948;5.316;2022-07-29T13:23:40;9.70;;;5.15;;
33138;SDS011;19501;50.948;5.316;2022-07-29T13:26:06;12.00;;;5.47;;
33138;SDS011;19501;50.948;5.316;2022-07-29T13:28:32;10.73;;;4.85;;
33138;SDS011;19501;50.948;5.316;2022-07-29T13:30:59;7.65;;;4.30;;
33138;SDS011;19501;50.948;5.316;2022-07-29T13:33:24;8.27;;;4.40;;
33138;SDS011;19501;50.948;5.316;2022-07-29T13:35:50;8.70;;;4.53;;
33138;SDS011;19501;50.948;5.316;2022-07-29T13:38:16;10.00;;;4.00;;
33138;SDS011;19501;50.948;5.316;2022-07-29T13:40:41;8.75;;;4.32;;
33138;SDS011;19501;50.948;5.316;2022-07-29T13:43:11;7.75;;;4.00;;
33138;SDS011;19501;50.948;5.316;2022-07-29T13:45:37;8.77;;;3.95;;
33138;SDS011;19501;50.948;5.316;2022-07-29T13:48:02;8.20;;;4.03;;
33138;SDS011;19501;50.948;5.316;2022-07-29T13:50:28;9.70;;;3.90;;
33138;SDS011;19501;50.948;5.316;2022-07-29T13:52:54;8.00;;;4.00;;
33138;SDS011;19501;50.948;5.316;2022-07-29T13:55:20;7.80;;;4.10;;
33138;SDS011;19501;50.948;5.316;2022-07-29T13:57:46;10.77;;;4.15;;
33138;SDS011;19501;50.948;5.316;2022-07-29T14:00:12;14.20;;;3.90;;
33138;SDS011;19501;50.948;5.316;2022-07-29T14:02:39;10.32;;;3.90;;
33138;SDS011;19501;50.948;5.316;2022-07-29T14:05:05;7.15;;;3.75;;
33138;SDS011;19501;50.948;5.316;2022-07-29T14:07:32;11.30;;;4.05;;
33138;SDS011;19501;50.948;5.316;2022-07-29T14:09:58;10.43;;;3.92;;
33138;SDS011;19501;50.948;5.316;2022-07-29T14:12:23;8.88;;;4.20;;
33138;SDS011;19501;50.948;5.316;2022-07-29T14:14:49;9.98;;;4.35;;
33138;SDS011;19501;50.948;5.316;2022-07-29T14:17:15;7.80;;;3.60;;
33138;SDS011;19501;50.948;5.316;2022-07-29T14:19:43;7.95;;;4.03;;
33138;SDS011;19501;50.948;5.316;2022-07-29T14:22:09;11.35;;;4.75;;
33138;SDS011;19501;50.948;5.316;2022-07-29T14:24:35;8.13;;;4.50;;
33138;SDS011;19501;50.948;5.316;2022-07-29T14:27:02;10.07;;;4.30;;
33138;SDS011;19501;50.948;5.316;2022-07-29T14:29:28;17.88;;;5.22;;
33138;SDS011;19501;50.948;5.316;2022-07-29T14:31:54;13.00;;;4.70;;
33138;SDS011;19501;50.948;5.316;2022-07-29T14:34:20;9.75;;;4.30;;
33138;SDS011;19501;50.948;5.316;2022-07-29T14:36:46;17.00;;;4.80;;
33138;SDS011;19501;50.948;5.316;2022-07-29T14:39:12;14.05;;;4.93;;
33138;SDS011;19501;50.948;5.316;2022-07-29T14:41:37;30.15;;;7.03;;
33138;SDS011;19501;50.948;5.316;2022-07-29T14:44:05;9.07;;;4.22;;
33138;SDS011;19501;50.948;5.316;2022-07-29T14:46:31;7.70;;;4.30;;
33138;SDS011;19501;50.948;5.316;2022-07-29T14:48:56;13.48;;;4.18;;
33138;SDS011;19501;50.948;5.316;2022-07-29T14:51:22;10.68;;;4.50;;
33138;SDS011;19501;50.948;5.316;2022-07-29T14:53:48;16.17;;;4.28;;
33138;SDS011;19501;50.948;5.316;2022-07-29T14:56:13;28.40;;;6.20;;
33138;SDS011;19501;50.948;5.316;2022-07-29T14:58:39;9.85;;;4.35;;
33138;SDS011;19501;50.948;5.316;2022-07-29T15:01:05;11.60;;;4.50;;
33138;SDS011;19501;50.948;5.316;2022-07-29T15:03:31;11.55;;;4.00;;
33138;SDS011;19501;50.948;5.316;2022-07-29T15:05:58;11.23;;;4.20;;
33138;SDS011;19501;50.948;5.316;2022-07-29T15:08:23;6.10;;;3.70;;
33138;SDS011;19501;50.948;5.316;2022-07-29T15:10:54;7.75;;;3.80;;
33138;SDS011;19501;50.948;5.316;2022-07-29T15:13:22;11.82;;;4.05;;
33138;SDS011;19501;50.948;5.316;2022-07-29T15:15:48;12.10;;;3.97;;
33138;SDS011;19501;50.948;5.316;2022-07-29T15:18:14;7.72;;;4.35;;
33138;SDS011;19501;50.948;5.316;2022-07-29T15:20:40;13.05;;;4.20;;
33138;SDS011;19501;50.948;5.316;2022-07-29T15:23:06;8.48;;;3.63;;
33138;SDS011;19501;50.948;5.316;2022-07-29T15:25:35;13.95;;;4.75;;
33138;SDS011;19501;50.948;5.316;2022-07-29T15:28:01;13.43;;;4.07;;
33138;SDS011;19501;50.948;5.316;2022-07-29T15:30:32;12.40;;;4.03;;
33138;SDS011;19501;50.948;5.316;2022-07-29T15:32:59;13.40;;;4.53;;
33138;SDS011;19501;50.948;5.316;2022-07-29T15:35:28;10.23;;;4.47;;